Time;durP1;ratioP1;P1;durP2;ratioP2;P2;SDS_P1;SDS_P2;PMS_P1;PMS_P2;Temp;Humidity;BMP_temperature;BMP_pressure;BME280_temperature;BME280_humidity;BME280_pressure;Samples;Min_cycle;Max_cycle;Signal;HPM_P1;HPM_P2
2021/05/23 00:02:48;;;;;;;4.10;2.03;;;;;;;;;;10355708;28;20547;-60
2021/05/23 00:07:49;;;;;;;1.55;1.20;;;;;;;;;;10355392;28;20071;-59
2021/05/23 00:12:47;;;;;;;3.88;1.38;;;;;;;;;;10355700;28;20063;-60
2021/05/23 00:17:46;;;;;;;3.55;1.20;;;;;;;;;;10355997;28;20083;-59
2021/05/23 00:22:44;;;;;;;5.43;1.42;;;;;;;;;;10355906;28;20083;-59
2021/05/23 00:27:42;;;;;;;2.67;1.30;;;;;;;;;;10355776;28;20071;-59
2021/05/23 00:32:40;;;;;;;1.50;1.30;;;;;;;;;;10361251;28;20040;-60
2021/05/23 00:37:39;;;;;;;4.40;1.85;;;;;;;;;;10363594;28;20051;-60
2021/05/23 00:42:36;;;;;;;1.88;1.48;;;;;;;;;;10362741;28;20088;-60
2021/05/23 00:47:34;;;;;;;2.47;1.50;;;;;;;;;;10363724;28;20059;-60
2021/05/23 00:52:32;;;;;;;4.43;1.60;;;;;;;;;;10363234;28;20043;-60
2021/05/23 00:57:32;;;;;;;2.17;1.75;;;;;;;;;;10361042;28;20080;-61
2021/05/23 01:02:43;;;;;;;2.92;1.50;;;;;;;;;;10361249;28;20629;-62
2021/05/23 01:07:41;;;;;;;3.83;1.80;;;;;;;;;;10361137;28;20044;-60
2021/05/23 01:13:01;;;;;;;3.30;1.30;;;;;;;;;;10361856;28;20047;-60
2021/05/23 01:18:01;;;;;;;2.55;1.50;;;;;;;;;;10361832;28;20052;-60
2021/05/23 01:23:06;;;;;;;3.95;1.75;;;;;;;;;;10361492;28;20075;-60
2021/05/23 01:28:06;;;;;;;4.47;1.60;;;;;;;;;;10361428;28;20048;-59
2021/05/23 01:33:07;;;;;;;4.18;1.50;;;;;;;;;;10360688;28;20044;-59
2021/05/23 01:38:09;;;;;;;3.92;1.30;;;;;;;;;;10360490;28;20048;-59
2021/05/23 01:43:09;;;;;;;3.20;1.48;;;;;;;;;;10360215;28;20087;-60
2021/05/23 01:48:08;;;;;;;2.08;1.60;;;;;;;;;;10360646;28;20057;-60
2021/05/23 01:53:06;;;;;;;5.80;1.80;;;;;;;;;;10360200;28;20048;-60
2021/05/23 01:58:04;;;;;;;5.78;1.70;;;;;;;;;;10360176;28;20091;-61
2021/05/23 02:03:04;;;;;;;4.72;1.55;;;;;;;;;;10359766;28;20094;-59
2021/05/23 02:08:03;;;;;;;1.67;1.58;;;;;;;;;;10360169;28;20047;-60
2021/05/23 02:13:01;;;;;;;5.28;1.88;;;;;;;;;;10358674;28;20072;-60
2021/05/23 02:17:59;;;;;;;2.80;2.03;;;;;;;;;;10358455;28;20079;-59
2021/05/23 02:22:59;;;;;;;2.05;1.50;;;;;;;;;;10358827;28;20083;-60
2021/05/23 02:27:58;;;;;;;6.82;1.63;;;;;;;;;;10358823;28;20044;-60
2021/05/23 02:32:56;;;;;;;2.72;1.98;;;;;;;;;;10358942;28;20320;-60
2021/05/23 02:37:55;;;;;;;1.75;1.65;;;;;;;;;;10358443;28;20051;-60
2021/05/23 02:42:54;;;;;;;5.93;2.05;;;;;;;;;;10357939;28;20094;-60
2021/05/23 02:47:52;;;;;;;4.30;1.88;;;;;;;;;;10358093;28;20048;-60
2021/05/23 02:52:50;;;;;;;4.05;2.15;;;;;;;;;;10355644;28;20051;-59
2021/05/23 02:57:48;;;;;;;2.25;1.58;;;;;;;;;;10357794;28;20051;-60
2021/05/23 03:02:47;;;;;;;3.40;1.80;;;;;;;;;;10357846;28;20512;-61
2021/05/23 03:07:46;;;;;;;3.05;1.50;;;;;;;;;;10356282;28;20048;-60
2021/05/23 03:12:44;;;;;;;4.00;2.30;;;;;;;;;;10357563;28;20259;-60
2021/05/23 03:17:42;;;;;;;4.80;2.08;;;;;;;;;;10357176;28;20048;-60
2021/05/23 03:22:41;;;;;;;3.47;2.00;;;;;;;;;;10356549;28;20083;-59
2021/05/23 03:27:39;;;;;;;2.38;1.70;;;;;;;;;;10356670;28;20047;-59
2021/05/23 03:32:36;;;;;;;3.05;1.60;;;;;;;;;;10357793;28;20080;-59
2021/05/23 03:37:34;;;;;;;2.92;2.03;;;;;;;;;;10358082;28;20051;-59
2021/05/23 03:42:33;;;;;;;2.33;1.92;;;;;;;;;;10356819;28;20087;-59
2021/05/23 03:47:31;;;;;;;6.38;2.40;;;;;;;;;;10357831;28;20036;-59
2021/05/23 03:52:30;;;;;;;6.45;2.15;;;;;;;;;;10357056;28;20432;-59
2021/05/23 03:57:27;;;;;;;1.90;1.67;;;;;;;;;;10357577;28;20067;-60
2021/05/23 04:02:27;;;;;;;7.13;2.13;;;;;;;;;;10357510;28;20075;-59
2021/05/23 04:07:26;;;;;;;1.90;1.80;;;;;;;;;;10364663;28;20052;-58
2021/05/23 04:12:29;;;;;;;5.85;2.17;;;;;;;;;;10365465;28;20492;-59
2021/05/23 04:17:28;;;;;;;3.97;2.30;;;;;;;;;;10363931;28;20432;-60
2021/05/23 04:22:27;;;;;;;2.83;2.15;;;;;;;;;;10363248;28;20048;-61
2021/05/23 04:27:25;;;;;;;4.50;2.05;;;;;;;;;;10364354;28;20059;-58
2021/05/23 04:32:24;;;;;;;3.03;2.20;;;;;;;;;;10364684;28;20051;-57
2021/05/23 04:37:22;;;;;;;5.97;2.10;;;;;;;;;;10363951;28;20044;-59
2021/05/23 04:42:20;;;;;;;4.93;2.42;;;;;;;;;;10363049;28;20533;-59
2021/05/23 04:47:38;;;;;;;2.63;2.20;;;;;;;;;;10363933;28;20051;-58
2021/05/23 04:52:37;;;;;;;3.92;1.90;;;;;;;;;;10363409;28;20044;-58
2021/05/23 04:57:35;;;;;;;2.33;2.10;;;;;;;;;;10363527;28;20543;-59
2021/05/23 05:02:33;;;;;;;2.38;1.70;;;;;;;;;;10362841;28;20040;-59
2021/05/23 05:07:31;;;;;;;6.72;2.30;;;;;;;;;;10362744;28;20416;-59
2021/05/23 05:12:31;;;;;;;1.95;1.77;;;;;;;;;;10362667;28;20044;-59
2021/05/23 05:17:28;;;;;;;8.27;2.70;;;;;;;;;;10360885;28;20044;-59
2021/05/23 05:22:27;;;;;;;4.03;2.92;;;;;;;;;;10362162;28;20083;-59
2021/05/23 05:27:25;;;;;;;5.63;2.72;;;;;;;;;;10362280;28;20468;-58
2021/05/23 05:32:25;;;;;;;5.53;3.55;;;;;;;;;;10360699;28;20076;-59
2021/05/23 05:37:23;;;;;;;14.98;4.80;;;;;;;;;;10361451;28;20461;-59
2021/05/23 05:42:20;;;;;;;5.95;3.60;;;;;;;;;;10359410;28;20087;-61
2021/05/23 05:47:18;;;;;;;12.05;4.13;;;;;;;;;;10356248;28;20041;-59
2021/05/23 05:52:17;;;;;;;5.55;3.80;;;;;;;;;;10355178;28;20444;-60
2021/05/23 05:57:15;;;;;;;17.52;8.15;;;;;;;;;;10351438;28;20469;-60
2021/05/23 06:02:15;;;;;;;7.68;4.38;;;;;;;;;;10355548;28;20083;-60
2021/05/23 06:07:13;;;;;;;9.57;5.05;;;;;;;;;;10351650;28;20072;-60
2021/05/23 06:12:12;;;;;;;8.38;4.35;;;;;;;;;;10357685;28;20075;-60
2021/05/23 06:17:10;;;;;;;8.70;3.55;;;;;;;;;;10359837;28;20079;-59
2021/05/23 06:22:07;;;;;;;8.38;5.88;;;;;;;;;;10329895;28;20127;-58
2021/05/23 06:27:06;;;;;;;5.32;3.03;;;;;;;;;;10339672;28;20107;-58
2021/05/23 06:32:06;;;;;;;6.63;4.28;;;;;;;;;;10352117;28;20075;-59
2021/05/23 06:37:04;;;;;;;7.63;3.50;;;;;;;;;;10349658;28;20083;-58
2021/05/23 06:42:02;;;;;;;7.45;2.78;;;;;;;;;;10349207;28;20102;-60
2021/05/23 06:47:00;;;;;;;9.38;3.72;;;;;;;;;;10354075;28;20079;-60
2021/05/23 06:51:59;;;;;;;7.22;3.50;;;;;;;;;;10355784;28;20043;-59
2021/05/23 06:56:57;;;;;;;9.68;2.92;;;;;;;;;;10356617;28;20055;-59
2021/05/23 07:01:55;;;;;;;7.50;3.22;;;;;;;;;;10356516;28;20286;-59
2021/05/23 07:06:52;;;;;;;7.28;3.90;;;;;;;;;;10356246;28;20079;-58
2021/05/23 07:11:51;;;;;;;5.03;3.72;;;;;;;;;;10356151;28;20177;-59
2021/05/23 07:16:49;;;;;;;81.78;9.68;;;;;;;;;;10356136;28;20055;-59
2021/05/23 07:21:47;;;;;;;6.63;4.28;;;;;;;;;;10355901;28;20488;-59
2021/05/23 07:26:45;;;;;;;13.40;4.75;;;;;;;;;;10355530;28;20546;-60
2021/05/23 07:31:44;;;;;;;7.38;4.88;;;;;;;;;;10355755;28;20039;-59
2021/05/23 07:36:42;;;;;;;5.38;3.13;;;;;;;;;;10355340;28;20051;-59
2021/05/23 07:41:39;;;;;;;2.58;2.38;;;;;;;;;;10361156;28;20051;-60
2021/05/23 07:46:38;;;;;;;12.73;3.22;;;;;;;;;;10363532;28;20080;-60
2021/05/23 07:51:37;;;;;;;6.05;3.03;;;;;;;;;;10363314;28;20083;-59
2021/05/23 07:56:37;;;;;;;3.72;1.63;;;;;;;;;;10363533;28;20055;-60
2021/05/23 08:01:35;;;;;;;3.60;2.75;;;;;;;;;;10362983;28;20036;-61
2021/05/23 08:06:33;;;;;;;4.50;3.70;;;;;;;;;;10363683;28;20063;-61
2021/05/23 08:11:32;;;;;;;2.90;2.58;;;;;;;;;;10362186;28;20481;-60
2021/05/23 08:16:30;;;;;;;3.08;2.60;;;;;;;;;;10363320;28;20503;-61
2021/05/23 08:21:28;;;;;;;2.65;2.45;;;;;;;;;;10363519;28;20547;-62
2021/05/23 08:26:25;;;;;;;8.10;3.47;;;;;;;;;;10361661;28;20077;-61
2021/05/23 08:31:24;;;;;;;6.15;4.05;;;;;;;;;;10363139;28;20036;-61
2021/05/23 08:36:22;;;;;;;3.10;2.80;;;;;;;;;;10362868;28;20044;-60
2021/05/23 08:41:21;;;;;;;8.10;3.13;;;;;;;;;;10361645;28;20052;-58
2021/05/23 08:46:18;;;;;;;2.75;1.55;;;;;;;;;;10363637;28;20075;-59
2021/05/23 08:51:17;;;;;;;2.92;1.63;;;;;;;;;;10356634;28;20531;-60
2021/05/23 08:56:15;;;;;;;4.65;2.65;;;;;;;;;;10341622;28;20055;-60
2021/05/23 09:01:22;;;;;;;2.80;2.05;;;;;;;;;;10341888;28;20051;-61
2021/05/23 09:06:29;;;;;;;1.65;1.48;;;;;;;;;;10359066;28;20218;-60
2021/05/23 09:11:27;;;;;;;7.00;2.28;;;;;;;;;;10360277;28;20940;-59
2021/05/23 09:16:25;;;;;;;4.70;2.97;;;;;;;;;;10360274;28;20087;-60
2021/05/23 09:21:24;;;;;;;1.80;1.70;;;;;;;;;;10360655;28;20082;-60
2021/05/23 09:26:24;;;;;;;2.38;2.17;;;;;;;;;;10360396;28;20086;-59
2021/05/23 09:31:23;;;;;;;4.47;2.47;;;;;;;;;;10341439;28;20040;-61
2021/05/23 09:36:22;;;;;;;4.65;2.03;;;;;;;;;;10359570;28;20075;-59
2021/05/23 09:41:20;;;;;;;5.72;2.03;;;;;;;;;;10358997;28;20553;-60
2021/05/23 09:46:19;;;;;;;6.68;2.38;;;;;;;;;;10358893;28;20052;-60
2021/05/23 09:51:18;;;;;;;4.03;2.20;;;;;;;;;;10359733;28;20044;-60
2021/05/23 09:56:16;;;;;;;3.13;2.88;;;;;;;;;;10359164;28;20140;-59
2021/05/23 10:01:25;;;;;;;4.85;4.13;;;;;;;;;;10358942;28;20082;-60
2021/05/23 10:06:26;;;;;;;4.72;1.80;;;;;;;;;;10357124;28;20074;-60
2021/05/23 10:11:27;;;;;;;6.80;2.78;;;;;;;;;;10354314;28;20492;-62
2021/05/23 10:16:33;;;;;;;3.47;3.17;;;;;;;;;;10350877;28;20078;-63
2021/05/23 10:21:30;;;;;;;5.43;2.05;;;;;;;;;;10356914;28;20536;-58
2021/05/23 10:26:31;;;;;;;2.85;2.28;;;;;;;;;;10352597;28;20083;-60
2021/05/23 10:31:30;;;;;;;4.35;2.30;;;;;;;;;;10351524;28;20067;-59
2021/05/23 10:36:32;;;;;;;4.40;1.90;;;;;;;;;;10344130;28;20071;-55
2021/05/23 10:41:30;;;;;;;4.30;2.30;;;;;;;;;;10352303;28;20456;-57
2021/05/23 10:46:50;;;;;;;4.80;1.90;;;;;;;;;;10350504;28;20095;-61
2021/05/23 10:51:52;;;;;;;2.83;2.05;;;;;;;;;;10339627;28;20432;-58
2021/05/23 10:56:58;;;;;;;3.58;2.88;;;;;;;;;;10349626;28;20076;-63
2021/05/23 11:01:57;;;;;;;9.85;2.15;;;;;;;;;;10353181;28;20110;-64
2021/05/23 11:07:06;;;;;;;3.08;1.70;;;;;;;;;;10355898;28;20075;-60
2021/05/23 11:12:06;;;;;;;3.75;2.33;;;;;;;;;;10351270;28;20048;-63
2021/05/23 11:17:07;;;;;;;5.28;3.10;;;;;;;;;;10346704;28;20080;-63
2021/05/23 11:22:05;;;;;;;4.63;2.35;;;;;;;;;;10348318;28;20072;-61
2021/05/23 11:27:10;;;;;;;6.40;3.08;;;;;;;;;;10357169;28;20500;-62
2021/05/23 11:32:12;;;;;;;2.45;2.22;;;;;;;;;;10351138;28;20079;-64
2021/05/23 11:37:10;;;;;;;2.75;1.65;;;;;;;;;;10352055;28;20075;-62
2021/05/23 11:42:09;;;;;;;3.55;1.70;;;;;;;;;;10337754;28;20074;-63
2021/05/23 11:47:07;;;;;;;4.28;1.90;;;;;;;;;;10354693;28;20083;-64
2021/05/23 11:52:06;;;;;;;2.10;1.75;;;;;;;;;;10355383;28;20028;-64
2021/05/23 11:57:04;;;;;;;6.38;3.47;;;;;;;;;;10355458;28;20051;-64
2021/05/23 12:02:02;;;;;;;2.50;1.98;;;;;;;;;;10351919;28;20068;-65
2021/05/23 12:07:00;;;;;;;3.67;1.80;;;;;;;;;;10350467;28;20076;-66
2021/05/23 12:11:59;;;;;;;2.70;1.95;;;;;;;;;;10351870;28;20067;-65
2021/05/23 12:17:02;;;;;;;2.70;1.42;;;;;;;;;;10353268;28;20075;-64
2021/05/23 12:22:00;;;;;;;4.93;1.42;;;;;;;;;;10354634;28;20079;-66
2021/05/23 12:26:59;;;;;;;3.72;1.50;;;;;;;;;;10359315;28;20493;-65
2021/05/23 12:32:02;;;;;;;3.58;2.00;;;;;;;;;;10344293;28;20076;-66
2021/05/23 12:37:10;;;;;;;2.25;1.45;;;;;;;;;;10343380;28;20523;-65
2021/05/23 12:42:09;;;;;;;6.20;1.30;;;;;;;;;;10361003;28;20483;-64
2021/05/23 12:47:10;;;;;;;7.32;2.20;;;;;;;;;;10361308;28;20114;-66
2021/05/23 12:52:11;;;;;;;4.65;1.75;;;;;;;;;;10357537;28;20094;-66
2021/05/23 12:57:12;;;;;;;2.25;1.80;;;;;;;;;;10360483;28;20083;-64
2021/05/23 13:02:10;;;;;;;2.90;2.25;;;;;;;;;;10359924;28;20072;-64
2021/05/23 13:07:08;;;;;;;6.20;3.47;;;;;;;;;;10340836;28;20440;-66
2021/05/23 13:12:07;;;;;;;3.15;1.88;;;;;;;;;;10358640;28;20512;-65
2021/05/23 13:17:06;;;;;;;2.42;1.70;;;;;;;;;;10356002;28;20471;-66
2021/05/23 13:22:05;;;;;;;7.15;3.58;;;;;;;;;;10356697;28;20063;-66
2021/05/23 13:27:03;;;;;;;2.92;2.33;;;;;;;;;;10358247;28;20075;-65
2021/05/23 13:32:02;;;;;;;3.60;1.42;;;;;;;;;;10359942;28;20488;-66
2021/05/23 13:37:01;;;;;;;3.70;1.52;;;;;;;;;;10358078;28;20064;-66
2021/05/23 13:41:59;;;;;;;4.60;1.80;;;;;;;;;;10358761;28;20096;-66
2021/05/23 13:46:57;;;;;;;5.10;4.13;;;;;;;;;;10358019;28;20379;-66
2021/05/23 13:51:56;;;;;;;11.88;2.08;;;;;;;;;;10359205;28;20090;-66
2021/05/23 13:56:54;;;;;;;4.32;1.90;;;;;;;;;;10358957;28;20051;-66
2021/05/23 14:01:53;;;;;;;2.40;1.77;;;;;;;;;;10357655;28;20072;-65
2021/05/23 14:06:52;;;;;;;4.22;2.13;;;;;;;;;;10358357;28;20513;-67
2021/05/23 14:11:50;;;;;;;2.22;1.52;;;;;;;;;;10358426;28;20047;-67
2021/05/23 14:16:48;;;;;;;3.42;3.00;;;;;;;;;;10357815;28;20048;-67
2021/05/23 14:21:46;;;;;;;2.65;1.35;;;;;;;;;;10357661;28;20055;-65
2021/05/23 14:27:04;;;;;;;5.47;2.83;;;;;;;;;;10357867;28;20079;-66
2021/05/23 14:32:03;;;;;;;2.40;1.63;;;;;;;;;;10338753;28;20484;-66
2021/05/23 14:37:01;;;;;;;5.97;2.95;;;;;;;;;;10357107;28;20056;-66
2021/05/23 14:41:59;;;;;;;3.58;1.48;;;;;;;;;;10356756;28;20083;-66
2021/05/23 14:46:57;;;;;;;2.20;1.50;;;;;;;;;;10338423;28;20424;-65
2021/05/23 14:51:57;;;;;;;2.38;1.38;;;;;;;;;;10356478;28;20073;-66
2021/05/23 14:56:55;;;;;;;5.00;1.80;;;;;;;;;;10356459;28;20044;-66
2021/05/23 15:01:53;;;;;;;2.83;1.75;;;;;;;;;;10356185;28;20040;-66
2021/05/23 15:06:51;;;;;;;7.00;1.98;;;;;;;;;;10356210;28;20075;-66
2021/05/23 15:11:50;;;;;;;3.55;2.00;;;;;;;;;;10355904;28;20099;-66
2021/05/23 15:16:47;;;;;;;2.15;1.55;;;;;;;;;;10355951;28;20530;-66
2021/05/23 15:21:45;;;;;;;3.90;1.92;;;;;;;;;;10355649;28;20449;-66
2021/05/23 15:26:45;;;;;;;4.05;2.80;;;;;;;;;;10355556;28;20450;-66
2021/05/23 15:31:44;;;;;;;5.38;3.75;;;;;;;;;;10355626;28;20040;-68
2021/05/23 15:36:42;;;;;;;5.95;1.58;;;;;;;;;;10355970;28;20040;-65
2021/05/23 15:41:40;;;;;;;1.30;1.20;;;;;;;;;;10355440;28;20070;-66
2021/05/23 15:46:38;;;;;;;7.50;2.75;;;;;;;;;;10355054;28;20079;-66
2021/05/23 15:51:37;;;;;;;4.07;2.70;;;;;;;;;;10354528;28;20443;-66
2021/05/23 15:56:35;;;;;;;3.40;2.50;;;;;;;;;;10355154;28;20043;-66
2021/05/23 16:01:32;;;;;;;3.20;1.77;;;;;;;;;;10358924;28;20417;-66
2021/05/23 16:06:31;;;;;;;4.10;1.70;;;;;;;;;;10363193;28;20068;-66
2021/05/23 16:11:31;;;;;;;2.60;2.40;;;;;;;;;;10362900;28;20056;-66
2021/05/23 16:16:28;;;;;;;4.75;3.38;;;;;;;;;;10362219;28;20052;-66
2021/05/23 16:21:26;;;;;;;6.57;3.78;;;;;;;;;;10362553;28;20075;-66
2021/05/23 16:26:24;;;;;;;7.30;4.57;;;;;;;;;;10362265;28;20079;-66
2021/05/23 16:31:23;;;;;;;4.20;3.83;;;;;;;;;;10362017;28;20048;-67
2021/05/23 16:36:24;;;;;;;6.07;4.53;;;;;;;;;;10361541;28;20047;-65
2021/05/23 16:41:22;;;;;;;12.48;5.57;;;;;;;;;;10361457;28;20091;-65
2021/05/23 16:46:21;;;;;;;6.55;3.97;;;;;;;;;;10361402;28;20083;-66
2021/05/23 16:51:19;;;;;;;4.03;3.13;;;;;;;;;;10361306;28;20048;-66
2021/05/23 16:56:17;;;;;;;7.53;3.40;;;;;;;;;;10360775;28;20044;-66
2021/05/23 17:01:15;;;;;;;18.25;7.72;;;;;;;;;;10360955;28;20067;-66
2021/05/23 17:06:13;;;;;;;7.43;3.90;;;;;;;;;;10359563;28;20076;-65
2021/05/23 17:11:12;;;;;;;9.52;3.75;;;;;;;;;;10358557;28;20481;-66
2021/05/23 17:16:09;;;;;;;9.45;5.93;;;;;;;;;;10360188;28;20063;-66
2021/05/23 17:21:07;;;;;;;8.75;5.35;;;;;;;;;;10341325;28;20052;-66
2021/05/23 17:26:05;;;;;;;4.43;3.33;;;;;;;;;;10358337;28;20083;-67
2021/05/23 17:31:04;;;;;;;6.13;4.97;;;;;;;;;;10359618;28;20036;-67
2021/05/23 17:36:02;;;;;;;8.80;4.75;;;;;;;;;;10353039;28;20469;-67
2021/05/23 17:41:00;;;;;;;6.88;4.88;;;;;;;;;;10345983;28;20086;-66
2021/05/23 17:45:58;;;;;;;9.68;3.33;;;;;;;;;;10356685;28;20072;-66
2021/05/23 17:50:57;;;;;;;3.65;3.00;;;;;;;;;;10354752;28;20082;-66
2021/05/23 17:55:55;;;;;;;7.80;3.28;;;;;;;;;;10356624;28;20535;-65
2021/05/23 18:00:53;;;;;;;9.00;3.50;;;;;;;;;;10345067;28;20059;-64
2021/05/23 18:05:52;;;;;;;4.15;2.97;;;;;;;;;;10315145;28;20099;-65
2021/05/23 18:10:50;;;;;;;4.90;3.33;;;;;;;;;;10348064;28;20109;-64
2021/05/23 18:15:48;;;;;;;4.45;3.35;;;;;;;;;;10350338;28;20094;-65
2021/05/23 18:20:46;;;;;;;8.15;3.08;;;;;;;;;;10354025;28;20047;-65
2021/05/23 18:25:44;;;;;;;8.70;3.38;;;;;;;;;;10356781;28;20122;-66
2021/05/23 18:30:43;;;;;;;4.20;2.65;;;;;;;;;;10356364;28;20067;-66
2021/05/23 18:35:41;;;;;;;3.33;3.00;;;;;;;;;;10358414;28;20058;-66
2021/05/23 18:40:41;;;;;;;5.32;2.60;;;;;;;;;;10355223;28;20098;-66
2021/05/23 18:45:40;;;;;;;5.68;4.13;;;;;;;;;;10342171;28;20056;-66
2021/05/23 18:50:39;;;;;;;4.63;4.10;;;;;;;;;;10324811;28;20066;-66
2021/05/23 18:55:37;;;;;;;4.90;3.50;;;;;;;;;;10338863;28;20047;-66
2021/05/23 19:00:35;;;;;;;9.27;4.85;;;;;;;;;;10359137;28;20494;-65
2021/05/23 19:05:33;;;;;;;3.55;2.72;;;;;;;;;;10353797;28;20101;-65
2021/05/23 19:10:34;;;;;;;4.25;2.25;;;;;;;;;;10333355;28;20068;-66
2021/05/23 19:15:32;;;;;;;5.50;2.42;;;;;;;;;;10357697;28;20075;-66
2021/05/23 19:20:31;;;;;;;3.25;2.08;;;;;;;;;;10357181;28;20052;-65
2021/05/23 19:25:29;;;;;;;3.78;2.20;;;;;;;;;;10358376;28;20040;-66
2021/05/23 19:30:29;;;;;;;3.08;2.33;;;;;;;;;;10356477;28;20076;-66
2021/05/23 19:35:28;;;;;;;1.50;1.40;;;;;;;;;;10355847;28;20531;-66
2021/05/23 19:40:27;;;;;;;3.25;2.47;;;;;;;;;;10356592;28;20087;-66
2021/05/23 19:45:25;;;;;;;6.63;1.95;;;;;;;;;;10353985;28;20098;-66
2021/05/23 19:50:24;;;;;;;2.85;1.42;;;;;;;;;;10343462;28;20082;-67
2021/05/23 19:55:23;;;;;;;3.58;1.92;;;;;;;;;;10356380;28;20079;-67
2021/05/23 20:00:21;;;;;;;2.15;1.70;;;;;;;;;;10349590;28;20048;-67
2021/05/23 20:05:19;;;;;;;4.07;1.77;;;;;;;;;;10350935;28;20536;-66
2021/05/23 20:10:19;;;;;;;6.60;1.85;;;;;;;;;;10353030;28;20086;-67
2021/05/23 20:15:17;;;;;;;4.85;2.20;;;;;;;;;;10357130;28;20051;-66
2021/05/23 20:20:16;;;;;;;3.28;1.67;;;;;;;;;;10356271;28;20488;-65
2021/05/23 20:25:14;;;;;;;4.13;2.00;;;;;;;;;;10356591;28;20048;-65
2021/05/23 20:30:17;;;;;;;9.00;2.47;;;;;;;;;;10354946;28;20487;-65
2021/05/23 20:35:16;;;;;;;5.07;2.35;;;;;;;;;;10352601;28;20500;-63
2021/05/23 20:40:15;;;;;;;4.68;2.20;;;;;;;;;;10355524;28;20082;-66
2021/05/23 20:45:14;;;;;;;3.63;2.25;;;;;;;;;;10349900;28;20544;-65
2021/05/23 20:50:13;;;;;;;5.65;2.65;;;;;;;;;;10353086;28;20500;-65
2021/05/23 20:55:12;;;;;;;6.88;2.50;;;;;;;;;;10342080;28;20056;-65
2021/05/23 21:00:11;;;;;;;5.13;2.50;;;;;;;;;;10361651;28;20086;-65
2021/05/23 21:05:14;;;;;;;4.50;2.50;;;;;;;;;;10349977;28;20095;-65
2021/05/23 21:10:14;;;;;;;3.08;2.70;;;;;;;;;;10358846;28;20113;-65
2021/05/23 21:15:12;;;;;;;4.13;2.45;;;;;;;;;;10357660;28;20440;-66
2021/05/23 21:20:12;;;;;;;3.13;2.83;;;;;;;;;;10353632;28;20090;-66
2021/05/23 21:25:10;;;;;;;4.47;2.60;;;;;;;;;;10360048;28;20079;-66
2021/05/23 21:30:09;;;;;;;4.38;2.78;;;;;;;;;;10356301;28;20083;-66
2021/05/23 21:35:07;;;;;;;2.40;2.20;;;;;;;;;;10360808;28;20075;-66
2021/05/23 21:40:08;;;;;;;2.80;2.20;;;;;;;;;;10352520;28;20075;-64
2021/05/23 21:45:06;;;;;;;5.45;3.53;;;;;;;;;;10357848;28;20079;-66
2021/05/23 21:50:04;;;;;;;4.03;2.58;;;;;;;;;;10361181;28;20084;-66
2021/05/23 21:55:03;;;;;;;6.18;2.92;;;;;;;;;;10354531;28;20469;-66
2021/05/23 22:00:01;;;;;;;4.97;2.97;;;;;;;;;;10355586;28;20075;-66
2021/05/23 22:05:01;;;;;;;2.58;2.38;;;;;;;;;;10358476;28;20075;-66
2021/05/23 22:09:59;;;;;;;6.10;2.58;;;;;;;;;;10348357;28;20079;-66
2021/05/23 22:14:57;;;;;;;6.03;2.65;;;;;;;;;;10357813;28;20076;-66
2021/05/23 22:19:56;;;;;;;5.13;2.83;;;;;;;;;;10351767;28;20072;-65
2021/05/23 22:24:54;;;;;;;4.00;2.40;;;;;;;;;;10358005;28;20056;-66
2021/05/23 22:29:52;;;;;;;3.00;2.60;;;;;;;;;;10353186;28;20080;-66
2021/05/23 22:34:49;;;;;;;2.80;2.45;;;;;;;;;;10359105;28;20079;-66
2021/05/23 22:39:48;;;;;;;2.80;2.47;;;;;;;;;;10359101;28;20079;-64
2021/05/23 22:44:46;;;;;;;3.33;2.60;;;;;;;;;;10354727;28;20076;-64
2021/05/23 22:49:45;;;;;;;2.63;2.40;;;;;;;;;;10358887;28;20074;-65
2021/05/23 22:54:43;;;;;;;5.95;2.95;;;;;;;;;;10357722;28;20066;-66
2021/05/23 22:59:42;;;;;;;3.03;2.72;;;;;;;;;;10357419;28;20051;-66
2021/05/23 23:04:42;;;;;;;5.43;2.70;;;;;;;;;;10357538;28;20040;-64
2021/05/23 23:09:40;;;;;;;2.85;2.65;;;;;;;;;;10315830;28;20048;-64
2021/05/23 23:14:38;;;;;;;3.28;2.63;;;;;;;;;;10341027;28;20051;-65
2021/05/23 23:19:37;;;;;;;4.03;2.70;;;;;;;;;;10356802;28;20401;-65
2021/05/23 23:24:34;;;;;;;5.88;2.83;;;;;;;;;;10354820;28;20103;-65
2021/05/23 23:29:32;;;;;;;8.20;3.22;;;;;;;;;;10356806;28;20538;-66
2021/05/23 23:34:30;;;;;;;5.57;2.70;;;;;;;;;;10352624;28;20044;-65
2021/05/23 23:39:29;;;;;;;10.85;3.33;;;;;;;;;;10357980;28;20036;-66
2021/05/23 23:44:28;;;;;;;6.15;2.40;;;;;;;;;;10357901;28;20052;-66
2021/05/23 23:49:26;;;;;;;5.65;2.90;;;;;;;;;;10356002;28;20080;-65
2021/05/23 23:54:24;;;;;;;4.47;3.42;;;;;;;;;;10355744;28;20044;-65
2021/05/23 23:59:23;;;;;;;5.50;2.70;;;;;;;;;;10348675;28;20087;-65
